createdAt,value
2017-09-13T00:04:40.067Z,100106.59
2017-09-13T00:09:42.011Z,100096.05
2017-09-13T00:14:43.979Z,100091.52
2017-09-13T00:19:45.999Z,100088.47
2017-09-13T00:24:48.267Z,100074.24
2017-09-13T00:29:50.313Z,100068.81
2017-09-13T00:34:52.317Z,100043.89
2017-09-13T00:39:55.945Z,100050.17
2017-09-13T00:44:58.018Z,100043.24
2017-09-13T00:50:00.038Z,100030.54
2017-09-13T00:55:02.191Z,100035.81
2017-09-13T01:00:04.984Z,100030.80
2017-09-13T01:05:06.971Z,100006.92
2017-09-13T01:10:09.734Z,99993.98
2017-09-13T01:15:11.687Z,99986.16
2017-09-13T01:20:13.700Z,99975.41
2017-09-13T01:25:15.678Z,99954.33
2017-09-13T01:30:17.676Z,99952.29
2017-09-13T01:35:19.639Z,99937.59
2017-09-13T01:40:21.611Z,99927.52
2017-09-13T01:45:23.586Z,99895.92
2017-09-13T01:50:26.284Z,99876.38
2017-09-13T01:55:28.267Z,99857.53
2017-09-13T02:00:30.217Z,99844.34
2017-09-13T02:05:32.183Z,99842.24
2017-09-13T02:10:34.931Z,99843.37
2017-09-13T02:15:36.894Z,99845.23
2017-09-13T02:20:39.423Z,99829.31
2017-09-13T02:25:41.394Z,99826.04
2017-09-13T02:30:43.380Z,99801.14
2017-09-13T02:35:45.508Z,99766.30
2017-09-13T02:40:48.684Z,99751.95
2017-09-13T02:45:51.722Z,99726.24
2017-09-13T02:50:53.946Z,99719.08
2017-09-13T02:55:56.346Z,99688.17
2017-09-13T03:00:58.727Z,99701.70
2017-09-13T03:06:01.648Z,99707.52
2017-09-13T03:11:03.919Z,99681.82
2017-09-13T03:16:05.910Z,99667.80
2017-09-13T03:21:07.866Z,99636.55
2017-09-13T03:26:10.379Z,99637.34
2017-09-13T03:31:16.295Z,99600.23
2017-09-13T03:36:19.345Z,99579.84
2017-09-13T03:41:21.481Z,99565.30
2017-09-13T03:46:23.443Z,99552.17
2017-09-13T03:51:25.443Z,99529.92
2017-09-13T03:56:27.449Z,99515.22
2017-09-13T04:01:29.439Z,99491.52
2017-09-13T04:06:31.491Z,99474.14
2017-09-13T04:11:33.476Z,99446.67
2017-09-13T04:16:36.176Z,99423.73
2017-09-13T04:21:38.162Z,99409.66
2017-09-13T04:26:40.140Z,99397.30
2017-09-13T04:31:42.110Z,99379.71
2017-09-13T04:36:44.059Z,99373.30
2017-09-13T04:41:46.127Z,99357.50
2017-09-13T04:46:48.115Z,99334.77
2017-09-13T04:51:54.097Z,99301.98
2017-09-13T04:56:56.076Z,99290.20
2017-09-13T05:01:58.078Z,99273.73
2017-09-13T05:07:00.082Z,99251.56
2017-09-13T05:12:02.066Z,99240.30
2017-09-13T05:17:04.779Z,99234.09
2017-09-13T05:22:06.739Z,99225.44
2017-09-13T05:27:08.710Z,99208.60
2017-09-13T05:32:11.450Z,99197.69
2017-09-13T05:37:13.480Z,99191.22
2017-09-13T05:42:15.441Z,99185.91
2017-09-13T05:47:17.416Z,99178.90
2017-09-13T05:52:19.379Z,99170.31
2017-09-13T05:57:21.343Z,99153.34
2017-09-13T06:02:23.364Z,99147.67
2017-09-13T06:07:25.377Z,99120.21
2017-09-13T06:12:27.344Z,99112.13
2017-09-13T06:17:29.315Z,99102.48
2017-09-13T06:22:31.334Z,99101.03
2017-09-13T06:27:33.393Z,99099.84
2017-09-13T06:32:35.427Z,99080.03
2017-09-13T06:37:37.451Z,99065.42
2017-09-13T06:42:39.900Z,99070.99
2017-09-13T06:47:41.881Z,99054.48
2017-09-13T06:52:43.866Z,99058.88
2017-09-13T06:57:45.851Z,99056.41
2017-09-13T07:02:47.869Z,99035.30
2017-09-13T07:07:49.862Z,99001.30
2017-09-13T07:12:51.820Z,99008.14
2017-09-13T07:17:53.802Z,98994.88
2017-09-13T07:22:55.766Z,98999.27
2017-09-13T07:27:58.466Z,98985.55
2017-09-13T07:33:00.518Z,99003.33
2017-09-13T07:38:02.557Z,98992.88
2017-09-13T07:43:04.533Z,98987.58
2017-09-13T07:48:06.515Z,98992.25
2017-09-13T07:53:08.484Z,98976.41
2017-09-13T07:58:10.507Z,98943.68
2017-09-13T08:03:13.293Z,98943.53
2017-09-13T08:08:15.349Z,98936.38
2017-09-13T08:13:17.370Z,98928.69
2017-09-13T08:18:19.451Z,98945.44
2017-09-13T08:23:21.491Z,98941.80
2017-09-13T08:28:24.188Z,98934.90
2017-09-13T08:33:26.144Z,98931.50
2017-09-13T08:38:28.134Z,98923.17
2017-09-13T08:43:30.883Z,98930.09
2017-09-13T08:48:32.864Z,98912.47
2017-09-13T08:53:35.547Z,98898.03
2017-09-13T08:58:37.616Z,98901.64
2017-09-13T09:03:39.672Z,98898.49
2017-09-13T09:08:41.780Z,98891.72
2017-09-13T09:13:44.515Z,98888.36
2017-09-13T09:18:46.528Z,98895.58
2017-09-13T09:23:48.501Z,98890.28
2017-09-13T09:28:50.569Z,98894.91
2017-09-13T09:33:53.524Z,98918.78
2017-09-13T09:38:55.552Z,98906.88
2017-09-13T09:43:57.593Z,98874.05
2017-09-13T09:48:59.647Z,98877.89
2017-09-13T09:54:01.639Z,98896.95
2017-09-13T09:59:04.356Z,98925.26
2017-09-13T10:04:06.407Z,98941.49
2017-09-13T10:09:08.397Z,98942.42
2017-09-13T10:14:10.361Z,98910.83
2017-09-13T10:19:13.093Z,98925.30
2017-09-13T10:24:15.094Z,98949.96
2017-09-13T10:29:17.503Z,98965.59
2017-09-13T10:34:19.523Z,98947.55
2017-09-13T10:39:21.616Z,98970.75
2017-09-13T10:44:23.606Z,98969.94
2017-09-13T10:49:25.703Z,98977.97
2017-09-13T10:54:27.667Z,98981.13
2017-09-13T10:59:29.660Z,98992.88
2017-09-13T11:04:31.717Z,99001.61
2017-09-13T11:09:33.715Z,98980.20
2017-09-13T11:14:36.472Z,98988.83
2017-09-13T11:19:38.468Z,98983.91
2017-09-13T11:24:41.219Z,98995.58
2017-09-13T11:29:43.253Z,99013.39
2017-09-13T11:34:46.003Z,99038.66
2017-09-13T11:39:48.002Z,99045.73
2017-09-13T11:44:50.708Z,99092.23
2017-09-13T11:49:52.664Z,99108.27
2017-09-13T11:54:54.876Z,99109.28
2017-09-13T11:59:57.845Z,99102.91
2017-09-13T12:04:59.844Z,99106.56
2017-09-13T12:10:01.852Z,99149.18
2017-09-13T12:15:04.602Z,99125.94
2017-09-13T12:20:07.365Z,99123.38
2017-09-13T12:25:09.375Z,99120.34
2017-09-13T12:30:11.364Z,99109.67
2017-09-13T12:35:13.367Z,99126.28
2017-09-13T12:40:16.239Z,99102.88
2017-09-13T12:45:18.320Z,99111.94
2017-09-13T12:50:20.332Z,99130.98
2017-09-13T12:55:23.053Z,99139.37
2017-09-13T13:00:25.189Z,99138.26
2017-09-13T13:05:27.232Z,99154.19
2017-09-13T13:10:29.242Z,99166.19
2017-09-13T13:15:31.209Z,99159.77
2017-09-13T13:20:33.444Z,99162.31
2017-09-13T13:25:36.099Z,99196.44
2017-09-13T13:30:38.929Z,99181.35
2017-09-13T13:35:41.194Z,99211.02
2017-09-13T13:40:43.150Z,99203.44
2017-09-13T13:45:45.185Z,99191.41
2017-09-13T13:50:47.197Z,99200.36
2017-09-13T13:55:49.926Z,99209.15
2017-09-13T14:00:51.946Z,99216.73
2017-09-13T14:05:53.984Z,99223.34
2017-09-13T14:10:55.965Z,99212.74
2017-09-13T14:15:58.025Z,99227.72
2017-09-13T14:21:00.051Z,99221.48
2017-09-13T14:26:02.016Z,99246.20
2017-09-13T14:31:03.991Z,99236.64
2017-09-13T14:36:06.056Z,99243.20
2017-09-13T14:41:08.141Z,99241.08
2017-09-13T14:46:10.097Z,99242.89
2017-09-13T14:51:12.169Z,99256.18
2017-09-13T14:56:14.307Z,99247.37
2017-09-13T15:01:16.330Z,99262.45
2017-09-13T15:06:18.403Z,99274.88
2017-09-13T15:11:20.412Z,99259.84
2017-09-13T15:16:22.369Z,99253.56
2017-09-13T15:21:25.187Z,99259.13
2017-09-13T15:26:27.251Z,99266.05
2017-09-13T15:31:30.012Z,99256.90
2017-09-13T15:36:31.950Z,99273.63
2017-09-13T15:41:34.140Z,99250.92
2017-09-13T15:46:36.141Z,99278.13
2017-09-13T15:51:38.104Z,99249.54
2017-09-13T15:56:40.935Z,99278.91
2017-09-13T16:01:42.934Z,99273.69
2017-09-13T16:06:44.962Z,99278.60
2017-09-13T16:11:47.042Z,99277.45
2017-09-13T16:16:49.763Z,99298.23
2017-09-13T16:21:51.843Z,99289.94
2017-09-13T16:26:53.825Z,99281.75
2017-09-13T16:31:56.033Z,99288.75
2017-09-13T16:36:58.021Z,99310.83
2017-09-13T16:42:00.060Z,99312.27
2017-09-13T16:47:02.088Z,99306.69
2017-09-13T16:52:04.174Z,99286.77
2017-09-13T16:57:06.257Z,99296.77
2017-09-13T17:02:08.243Z,99299.57
2017-09-13T17:07:10.299Z,99300.30
2017-09-13T17:12:13.040Z,99298.60
2017-09-13T17:17:16.191Z,99307.73
2017-09-13T17:22:18.222Z,99281.42
2017-09-13T17:27:20.227Z,99305.57
2017-09-13T17:32:22.184Z,99302.48
2017-09-13T17:37:25.229Z,99304.38
2017-09-13T17:42:27.363Z,99311.34
2017-09-13T17:47:29.509Z,99310.07
2017-09-13T17:52:31.487Z,99317.71
2017-09-13T17:57:33.506Z,99314.88
2017-09-13T18:02:35.560Z,99314.52
2017-09-13T18:07:37.535Z,99319.78
2017-09-13T18:12:39.544Z,99320.17
2017-09-13T18:17:41.679Z,99329.90
2017-09-13T18:22:43.718Z,99335.14
2017-09-13T18:27:45.739Z,99333.67
2017-09-13T18:32:48.595Z,99342.53
2017-09-13T18:37:50.583Z,99341.67
2017-09-13T18:42:52.523Z,99343.84
2017-09-13T18:47:55.920Z,99347.55
2017-09-13T18:52:58.227Z,99345.30
2017-09-13T18:58:00.511Z,99351.33
2017-09-13T19:03:02.520Z,99349.30
2017-09-13T19:08:06.935Z,99348.17
2017-09-13T19:13:08.930Z,99349.97
2017-09-13T19:18:12.348Z,99356.87
2017-09-13T19:23:15.148Z,99355.25
2017-09-13T19:28:17.239Z,99351.39
2017-09-13T19:33:19.324Z,99362.09
2017-09-13T19:38:21.535Z,99357.05
2017-09-13T19:43:23.547Z,99369.49
2017-09-13T19:48:25.621Z,99368.73
2017-09-13T19:53:27.679Z,99366.44
2017-09-13T19:58:29.660Z,99369.37
2017-09-13T20:03:31.700Z,99362.83
2017-09-13T20:08:34.254Z,99361.92
2017-09-13T20:13:36.287Z,99365.92
2017-09-13T20:18:38.637Z,99360.08
2017-09-13T20:23:41.023Z,99368.80
2017-09-13T20:28:42.976Z,99363.38
2017-09-13T20:33:45.034Z,99358.45
2017-09-13T20:38:47.063Z,99366.89
2017-09-13T20:43:49.035Z,99364.59
2017-09-13T20:48:51.193Z,99374.34
2017-09-13T20:53:53.176Z,99384.88
2017-09-13T20:58:55.975Z,99386.80
2017-09-13T21:03:57.935Z,99375.20
2017-09-13T21:08:59.878Z,99374.23
2017-09-13T21:14:01.864Z,99376.14
2017-09-13T21:19:03.840Z,99382.83
2017-09-13T21:24:06.540Z,99380.59
2017-09-13T21:29:08.579Z,99373.77
2017-09-13T21:34:11.288Z,99370.23
2017-09-13T21:39:13.419Z,99367.47
2017-09-13T21:44:15.387Z,99373.55
2017-09-13T21:49:17.384Z,99371.84
2017-09-13T21:54:19.421Z,99358.51
2017-09-13T21:59:21.388Z,99357.35
2017-09-13T22:04:23.422Z,99360.22
2017-09-13T22:09:25.447Z,99368.67
2017-09-13T22:14:28.342Z,99370.07
2017-09-13T22:19:30.343Z,99362.05
2017-09-13T22:24:32.345Z,99360.00
2017-09-13T22:29:34.336Z,99370.53
2017-09-13T22:34:36.357Z,99353.64
2017-09-13T22:39:38.429Z,99358.88
2017-09-13T22:44:40.710Z,99362.52
2017-09-13T22:49:43.443Z,99365.97
2017-09-13T22:54:45.529Z,99369.73
2017-09-13T22:59:48.158Z,99364.73
2017-09-13T23:04:50.805Z,99367.80
2017-09-13T23:09:53.436Z,99363.48
2017-09-13T23:14:55.807Z,99362.94
2017-09-13T23:19:57.747Z,99356.85
2017-09-13T23:25:00.590Z,99345.14
2017-09-13T23:30:02.552Z,99354.08
2017-09-13T23:35:05.550Z,99343.47
2017-09-13T23:40:07.541Z,99336.09
2017-09-13T23:45:09.520Z,99331.05
2017-09-13T23:50:12.241Z,99329.66
2017-09-13T23:55:14.212Z,99338.58
